sensor_id;sensor_type;location;lat;lon;timestamp;pressure;altitude;pressure_sealevel;temperature;humidity
50636;BME280;36598;46.054;11.130;2023-03-04T00:00:18;99387.66;;;8.87;62.74
50636;BME280;36598;46.054;11.130;2023-03-04T00:02:44;99389.97;;;9.06;61.80
50636;BME280;36598;46.054;11.130;2023-03-04T00:05:09;99391.53;;;9.07;62.37
50636;BME280;36598;46.054;11.130;2023-03-04T00:07:34;99392.78;;;8.92;62.59
50636;BME280;36598;46.054;11.130;2023-03-04T00:09:59;99400.22;;;8.98;62.34
50636;BME280;36598;46.054;11.130;2023-03-04T00:12:25;99397.94;;;8.79;62.91
50636;BME280;36598;46.054;11.130;2023-03-04T00:14:50;99412.91;;;8.74;62.97
50636;BME280;36598;46.054;11.130;2023-03-04T00:17:15;99414.50;;;8.83;62.26
50636;BME280;36598;46.054;11.130;2023-03-04T00:19:41;99416.88;;;8.59;62.82
50636;BME280;36598;46.054;11.130;2023-03-04T00:22:06;99423.97;;;8.32;63.85
50636;BME280;36598;46.054;11.130;2023-03-04T00:24:31;99425.53;;;8.18;63.93
50636;BME280;36598;46.054;11.130;2023-03-04T00:26:56;99413.75;;;8.57;62.56
50636;BME280;36598;46.054;11.130;2023-03-04T00:29:22;99420.41;;;8.67;62.46
50636;BME280;36598;46.054;11.130;2023-03-04T00:31:47;99415.31;;;8.40;62.90
50636;BME280;36598;46.054;11.130;2023-03-04T00:34:12;99419.63;;;8.66;61.61
50636;BME280;36598;46.054;11.130;2023-03-04T00:36:38;99416.47;;;8.25;63.25
50636;BME280;36598;46.054;11.130;2023-03-04T00:39:03;99431.03;;;8.11;63.09
50636;BME280;36598;46.054;11.130;2023-03-04T00:41:28;99428.28;;;8.33;62.65
50636;BME280;36598;46.054;11.130;2023-03-04T00:43:53;99421.63;;;8.41;62.61
50636;BME280;36598;46.054;11.130;2023-03-04T00:46:19;99431.72;;;7.62;64.53
50636;BME280;36598;46.054;11.130;2023-03-04T00:48:44;99430.25;;;8.14;63.54
50636;BME280;36598;46.054;11.130;2023-03-04T00:51:09;99431.81;;;7.94;63.78
50636;BME280;36598;46.054;11.130;2023-03-04T00:53:35;99434.94;;;7.89;64.33
50636;BME280;36598;46.054;11.130;2023-03-04T00:56:00;99427.84;;;7.84;63.74
50636;BME280;36598;46.054;11.130;2023-03-04T00:58:25;99424.31;;;7.94;63.49
50636;BME280;36598;46.054;11.130;2023-03-04T01:00:50;99423.94;;;7.89;63.77
50636;BME280;36598;46.054;11.130;2023-03-04T01:03:16;99424.72;;;7.89;63.83
50636;BME280;36598;46.054;11.130;2023-03-04T01:05:41;99425.09;;;7.95;62.75
50636;BME280;36598;46.054;11.130;2023-03-04T01:08:06;99421.56;;;7.91;63.02
50636;BME280;36598;46.054;11.130;2023-03-04T01:10:32;99423.84;;;7.57;64.23
50636;BME280;36598;46.054;11.130;2023-03-04T01:12:57;99425.34;;;7.33;64.57
50636;BME280;36598;46.054;11.130;2023-03-04T01:15:22;99427.81;;;7.70;63.79
50636;BME280;36598;46.054;11.130;2023-03-04T01:17:48;99418.38;;;7.71;63.54
50636;BME280;36598;46.054;11.130;2023-03-04T01:20:13;99419.56;;;7.73;63.07
50636;BME280;36598;46.054;11.130;2023-03-04T01:22:39;99421.84;;;7.46;63.55
50636;BME280;36598;46.054;11.130;2023-03-04T01:25:04;99428.97;;;7.55;63.67
50636;BME280;36598;46.054;11.130;2023-03-04T01:27:30;99418.25;;;7.32;64.51
50636;BME280;36598;46.054;11.130;2023-03-04T01:29:55;99419.84;;;7.40;64.01
50636;BME280;36598;46.054;11.130;2023-03-04T01:32:20;99421.00;;;7.35;64.27
50636;BME280;36598;46.054;11.130;2023-03-04T01:34:45;99417.94;;;7.51;63.41
50636;BME280;36598;46.054;11.130;2023-03-04T01:37:11;99419.91;;;7.50;63.52
50636;BME280;36598;46.054;11.130;2023-03-04T01:39:37;99409.28;;;7.56;63.43
50636;BME280;36598;46.054;11.130;2023-03-04T01:42:03;99416.34;;;7.53;63.22
50636;BME280;36598;46.054;11.130;2023-03-04T01:44:28;99412.81;;;7.49;63.63
50636;BME280;36598;46.054;11.130;2023-03-04T01:46:53;99410.00;;;7.35;63.51
50636;BME280;36598;46.054;11.130;2023-03-04T01:49:19;99414.28;;;7.22;63.93
50636;BME280;36598;46.054;11.130;2023-03-04T01:51:46;99405.59;;;7.13;64.19
50636;BME280;36598;46.054;11.130;2023-03-04T01:54:13;99409.09;;;7.02;64.26
50636;BME280;36598;46.054;11.130;2023-03-04T01:56:38;99412.56;;;6.96;64.78
50636;BME280;36598;46.054;11.130;2023-03-04T02:01:42;99395.25;;;6.92;64.49
50636;BME280;36598;46.054;11.130;2023-03-04T02:04:08;99398.31;;;6.72;65.31
50636;BME280;36598;46.054;11.130;2023-03-04T02:06:35;99391.78;;;6.98;64.48
50636;BME280;36598;46.054;11.130;2023-03-04T02:09:01;99389.03;;;7.06;64.08
50636;BME280;36598;46.054;11.130;2023-03-04T02:11:27;99383.00;;;6.78;65.11
50636;BME280;36598;46.054;11.130;2023-03-04T02:13:52;99382.66;;;6.84;65.18
50636;BME280;36598;46.054;11.130;2023-03-04T02:16:18;99385.47;;;6.94;64.87
50636;BME280;36598;46.054;11.130;2023-03-04T02:18:43;99388.22;;;7.01;64.34
50636;BME280;36598;46.054;11.130;2023-03-04T02:23:36;99383.75;;;6.68;65.51
50636;BME280;36598;46.054;11.130;2023-03-04T02:26:24;99377.94;;;6.88;64.81
50636;BME280;36598;46.054;11.130;2023-03-04T02:28:51;99383.88;;;6.97;64.28
50636;BME280;36598;46.054;11.130;2023-03-04T02:31:24;99377.97;;;6.91;64.27
50636;BME280;36598;46.054;11.130;2023-03-04T02:33:50;99382.81;;;6.46;65.25
50636;BME280;36598;46.054;11.130;2023-03-04T02:36:16;99372.81;;;6.20;66.54
50636;BME280;36598;46.054;11.130;2023-03-04T02:38:41;99380.88;;;6.47;65.88
50636;BME280;36598;46.054;11.130;2023-03-04T02:41:08;99382.38;;;6.41;65.78
50636;BME280;36598;46.054;11.130;2023-03-04T02:43:36;99387.66;;;6.64;64.81
50636;BME280;36598;46.054;11.130;2023-03-04T02:46:01;99376.19;;;6.51;65.40
50636;BME280;36598;46.054;11.130;2023-03-04T02:48:27;99380.59;;;6.66;65.02
50636;BME280;36598;46.054;11.130;2023-03-04T02:50:52;99375.88;;;6.08;66.78
50636;BME280;36598;46.054;11.130;2023-03-04T02:53:18;99382.59;;;6.14;66.54
50636;BME280;36598;46.054;11.130;2023-03-04T02:55:44;99384.31;;;6.37;65.71
50636;BME280;36598;46.054;11.130;2023-03-04T02:58:10;99384.75;;;6.39;65.85
50636;BME280;36598;46.054;11.130;2023-03-04T03:00:36;99385.00;;;5.82;66.40
50636;BME280;36598;46.054;11.130;2023-03-04T03:03:02;99384.25;;;6.26;65.54
50636;BME280;36598;46.054;11.130;2023-03-04T03:05:28;99386.22;;;5.85;66.76
50636;BME280;36598;46.054;11.130;2023-03-04T03:07:53;99384.59;;;6.21;65.81
50636;BME280;36598;46.054;11.130;2023-03-04T03:10:19;99381.47;;;6.22;65.47
50636;BME280;36598;46.054;11.130;2023-03-04T03:12:45;99379.78;;;6.07;65.13
50636;BME280;36598;46.054;11.130;2023-03-04T03:15:10;99384.91;;;6.12;64.55
50636;BME280;36598;46.054;11.130;2023-03-04T03:17:35;99384.56;;;6.17;64.55
50636;BME280;36598;46.054;11.130;2023-03-04T03:20:01;99384.41;;;5.96;65.78
50636;BME280;36598;46.054;11.130;2023-03-04T03:22:26;99377.09;;;6.14;65.44
50636;BME280;36598;46.054;11.130;2023-03-04T03:24:52;99379.41;;;6.12;64.58
50636;BME280;36598;46.054;11.130;2023-03-04T03:27:17;99379.09;;;6.21;64.86
50636;BME280;36598;46.054;11.130;2023-03-04T03:29:42;99381.13;;;6.27;64.50
50636;BME280;36598;46.054;11.130;2023-03-04T03:32:07;99385.03;;;6.26;64.44
50636;BME280;36598;46.054;11.130;2023-03-04T03:34:33;99376.66;;;6.12;64.78
50636;BME280;36598;46.054;11.130;2023-03-04T03:36:58;99374.06;;;5.86;65.35
50636;BME280;36598;46.054;11.130;2023-03-04T03:39:23;99374.00;;;5.78;66.43
50636;BME280;36598;46.054;11.130;2023-03-04T03:41:49;99379.31;;;5.98;66.00
50636;BME280;36598;46.054;11.130;2023-03-04T03:44:14;99385.25;;;6.07;64.81
50636;BME280;36598;46.054;11.130;2023-03-04T03:46:39;99374.84;;;5.83;65.80
50636;BME280;36598;46.054;11.130;2023-03-04T03:49:05;99380.19;;;6.09;65.12
50636;BME280;36598;46.054;11.130;2023-03-04T03:51:30;99375.06;;;6.08;65.29
50636;BME280;36598;46.054;11.130;2023-03-04T03:53:55;99374.97;;;5.97;65.37
50636;BME280;36598;46.054;11.130;2023-03-04T03:56:21;99377.28;;;5.91;65.31
50636;BME280;36598;46.054;11.130;2023-03-04T03:58:46;99380.34;;;5.86;65.02
50636;BME280;36598;46.054;11.130;2023-03-04T04:01:11;99376.81;;;5.86;65.51
50636;BME280;36598;46.054;11.130;2023-03-04T04:03:36;99367.81;;;5.89;64.80
50636;BME280;36598;46.054;11.130;2023-03-04T04:06:02;99379.06;;;5.76;65.23
50636;BME280;36598;46.054;11.130;2023-03-04T04:08:27;99372.91;;;5.87;65.36
50636;BME280;36598;46.054;11.130;2023-03-04T04:10:52;99374.94;;;5.19;66.82
50636;BME280;36598;46.054;11.130;2023-03-04T04:13:18;99383.19;;;5.56;66.64
50636;BME280;36598;46.054;11.130;2023-03-04T04:15:43;99379.81;;;5.73;65.73
50636;BME280;36598;46.054;11.130;2023-03-04T04:18:08;99385.72;;;5.72;65.55
50636;BME280;36598;46.054;11.130;2023-03-04T04:20:34;99381.00;;;5.72;65.67
50636;BME280;36598;46.054;11.130;2023-03-04T04:22:59;99386.75;;;5.60;65.93
50636;BME280;36598;46.054;11.130;2023-03-04T04:25:25;99387.75;;;5.82;64.89
50636;BME280;36598;46.054;11.130;2023-03-04T04:27:50;99390.28;;;5.57;65.90
50636;BME280;36598;46.054;11.130;2023-03-04T04:30:15;99389.38;;;5.87;64.44
50636;BME280;36598;46.054;11.130;2023-03-04T04:32:41;99395.13;;;5.71;64.84
50636;BME280;36598;46.054;11.130;2023-03-04T04:35:06;99388.56;;;5.45;65.92
50636;BME280;36598;46.054;11.130;2023-03-04T04:37:32;99390.50;;;5.41;65.93
50636;BME280;36598;46.054;11.130;2023-03-04T04:39:57;99394.16;;;5.56;65.51
50636;BME280;36598;46.054;11.130;2023-03-04T04:42:22;99393.84;;;5.61;64.87
50636;BME280;36598;46.054;11.130;2023-03-04T04:44:48;99397.94;;;5.41;65.48
50636;BME280;36598;46.054;11.130;2023-03-04T04:47:13;99398.69;;;5.38;65.76
50636;BME280;36598;46.054;11.130;2023-03-04T04:49:38;99398.03;;;5.51;65.06
50636;BME280;36598;46.054;11.130;2023-03-04T04:52:04;99391.06;;;5.58;65.05
50636;BME280;36598;46.054;11.130;2023-03-04T04:54:29;99392.75;;;5.32;65.62
50636;BME280;36598;46.054;11.130;2023-03-04T04:56:54;99406.75;;;5.23;65.45
50636;BME280;36598;46.054;11.130;2023-03-04T04:59:20;99403.81;;;5.43;65.59
50636;BME280;36598;46.054;11.130;2023-03-04T05:01:45;99400.47;;;5.23;65.72
50636;BME280;36598;46.054;11.130;2023-03-04T05:04:10;99399.94;;;5.47;65.28
50636;BME280;36598;46.054;11.130;2023-03-04T05:06:36;99401.66;;;5.25;65.27
50636;BME280;36598;46.054;11.130;2023-03-04T05:09:01;99401.22;;;4.90;66.35
50636;BME280;36598;46.054;11.130;2023-03-04T05:11:26;99407.50;;;4.90;66.45
50636;BME280;36598;46.054;11.130;2023-03-04T05:13:52;99411.69;;;5.11;65.77
50636;BME280;36598;46.054;11.130;2023-03-04T05:16:17;99408.16;;;5.10;65.91
50636;BME280;36598;46.054;11.130;2023-03-04T05:18:43;99409.22;;;5.02;66.08
50636;BME280;36598;46.054;11.130;2023-03-04T05:21:08;99412.41;;;5.38;65.29
50636;BME280;36598;46.054;11.130;2023-03-04T05:23:35;99405.97;;;5.23;65.50
50636;BME280;36598;46.054;11.130;2023-03-04T05:26:01;99415.19;;;5.41;64.63
50636;BME280;36598;46.054;11.130;2023-03-04T05:28:26;99411.47;;;5.26;65.56
50636;BME280;36598;46.054;11.130;2023-03-04T05:30:52;99407.81;;;5.49;64.52
50636;BME280;36598;46.054;11.130;2023-03-04T05:33:17;99409.63;;;5.04;65.48
50636;BME280;36598;46.054;11.130;2023-03-04T05:35:43;99409.06;;;5.21;64.58
50636;BME280;36598;46.054;11.130;2023-03-04T05:38:09;99413.63;;;5.10;64.81
50636;BME280;36598;46.054;11.130;2023-03-04T05:40:35;99407.38;;;5.13;64.83
50636;BME280;36598;46.054;11.130;2023-03-04T05:43:00;99411.34;;;5.16;64.90
50636;BME280;36598;46.054;11.130;2023-03-04T05:45:25;99408.59;;;5.16;65.03
50636;BME280;36598;46.054;11.130;2023-03-04T05:47:51;99420.59;;;5.04;65.35
50636;BME280;36598;46.054;11.130;2023-03-04T05:50:16;99416.41;;;5.14;64.84
50636;BME280;36598;46.054;11.130;2023-03-04T05:52:42;99414.22;;;4.96;65.55
50636;BME280;36598;46.054;11.130;2023-03-04T05:55:07;99420.53;;;5.00;65.07
50636;BME280;36598;46.054;11.130;2023-03-04T05:57:33;99421.72;;;4.99;65.23
50636;BME280;36598;46.054;11.130;2023-03-04T05:59:58;99425.34;;;5.07;64.33
50636;BME280;36598;46.054;11.130;2023-03-04T06:02:23;99435.34;;;5.22;63.93
50636;BME280;36598;46.054;11.130;2023-03-04T06:04:49;99430.59;;;5.19;63.99
50636;BME280;36598;46.054;11.130;2023-03-04T06:07:14;99438.66;;;4.52;65.81
50636;BME280;36598;46.054;11.130;2023-03-04T06:09:39;99436.22;;;5.00;64.74
50636;BME280;36598;46.054;11.130;2023-03-04T06:12:05;99441.69;;;5.00;64.39
50636;BME280;36598;46.054;11.130;2023-03-04T06:14:30;99438.16;;;4.99;64.61
50636;BME280;36598;46.054;11.130;2023-03-04T06:16:55;99450.47;;;4.83;65.19
50636;BME280;36598;46.054;11.130;2023-03-04T06:19:21;99445.88;;;4.90;65.06
50636;BME280;36598;46.054;11.130;2023-03-04T06:21:46;99453.22;;;4.83;65.16
50636;BME280;36598;46.054;11.130;2023-03-04T06:24:11;99449.19;;;5.03;64.35
50636;BME280;36598;46.054;11.130;2023-03-04T06:26:37;99455.47;;;5.03;64.27
50636;BME280;36598;46.054;11.130;2023-03-04T06:29:03;99456.84;;;4.64;65.79
50636;BME280;36598;46.054;11.130;2023-03-04T06:31:28;99458.53;;;4.98;64.87
50636;BME280;36598;46.054;11.130;2023-03-04T06:33:53;99465.09;;;4.64;65.62
50636;BME280;36598;46.054;11.130;2023-03-04T06:36:19;99458.75;;;4.86;64.78
50636;BME280;36598;46.054;11.130;2023-03-04T06:38:44;99461.34;;;5.32;63.64
50636;BME280;36598;46.054;11.130;2023-03-04T06:41:10;99462.66;;;5.45;62.88
50636;BME280;36598;46.054;11.130;2023-03-04T06:43:35;99459.13;;;5.45;62.92
50636;BME280;36598;46.054;11.130;2023-03-04T06:46:01;99463.63;;;5.60;62.11
50636;BME280;36598;46.054;11.130;2023-03-04T06:48:26;99462.03;;;5.25;63.34
50636;BME280;36598;46.054;11.130;2023-03-04T06:50:52;99461.53;;;5.50;62.79
50636;BME280;36598;46.054;11.130;2023-03-04T06:53:17;99459.03;;;5.38;62.38
50636;BME280;36598;46.054;11.130;2023-03-04T06:55:42;99462.25;;;5.43;62.91
50636;BME280;36598;46.054;11.130;2023-03-04T06:58:08;99465.22;;;5.61;62.27
50636;BME280;36598;46.054;11.130;2023-03-04T07:00:33;99465.66;;;5.33;63.03
50636;BME280;36598;46.054;11.130;2023-03-04T07:02:58;99466.00;;;5.62;61.98
50636;BME280;36598;46.054;11.130;2023-03-04T07:05:24;99467.28;;;5.71;61.89
50636;BME280;36598;46.054;11.130;2023-03-04T07:07:49;99469.44;;;5.55;62.41
50636;BME280;36598;46.054;11.130;2023-03-04T07:10:16;99464.44;;;5.98;61.28
50636;BME280;36598;46.054;11.130;2023-03-04T07:12:41;99464.34;;;5.91;60.93
50636;BME280;36598;46.054;11.130;2023-03-04T07:15:07;99465.28;;;6.02;61.25
50636;BME280;36598;46.054;11.130;2023-03-04T07:17:32;99461.09;;;6.15;60.75
50636;BME280;36598;46.054;11.130;2023-03-04T07:19:58;99463.44;;;5.80;61.30
50636;BME280;36598;46.054;11.130;2023-03-04T07:22:24;99468.44;;;6.04;60.84
50636;BME280;36598;46.054;11.130;2023-03-04T07:24:49;99463.25;;;5.95;60.97
50636;BME280;36598;46.054;11.130;2023-03-04T07:27:14;99459.63;;;5.88;60.63
50636;BME280;36598;46.054;11.130;2023-03-04T07:29:39;99471.59;;;6.06;60.32
50636;BME280;36598;46.054;11.130;2023-03-04T07:32:08;99465.13;;;5.54;62.11
50636;BME280;36598;46.054;11.130;2023-03-04T07:34:33;99469.97;;;6.01;60.91
50636;BME280;36598;46.054;11.130;2023-03-04T07:36:58;99467.63;;;6.99;58.60
50636;BME280;36598;46.054;11.130;2023-03-04T07:39:24;99454.56;;;12.53;44.44
50636;BME280;36598;46.054;11.130;2023-03-04T07:41:49;99441.41;;;20.27;29.95
50636;BME280;36598;46.054;11.130;2023-03-04T07:44:14;99441.84;;;24.14;23.88
50636;BME280;36598;46.054;11.130;2023-03-04T07:46:40;99441.53;;;25.63;21.30
50636;BME280;36598;46.054;11.130;2023-03-04T07:49:05;99435.28;;;26.83;19.98
50636;BME280;36598;46.054;11.130;2023-03-04T07:51:30;99434.31;;;28.40;18.47
50636;BME280;36598;46.054;11.130;2023-03-04T07:53:57;99429.94;;;29.44;17.28
50636;BME280;36598;46.054;11.130;2023-03-04T07:56:23;99440.38;;;30.06;16.46
50636;BME280;36598;46.054;11.130;2023-03-04T07:58:49;99433.78;;;29.47;16.85
50636;BME280;36598;46.054;11.130;2023-03-04T08:01:19;99429.91;;;32.52;14.36
50636;BME280;36598;46.054;11.130;2023-03-04T08:03:45;99428.63;;;31.90;14.90
50636;BME280;36598;46.054;11.130;2023-03-04T08:06:12;99428.41;;;32.30;14.44
50636;BME280;36598;46.054;11.130;2023-03-04T08:08:38;99416.22;;;32.08;14.64
50636;BME280;36598;46.054;11.130;2023-03-04T08:11:04;99415.81;;;32.90;13.64
50636;BME280;36598;46.054;11.130;2023-03-04T08:13:30;99416.50;;;32.75;13.44
50636;BME280;36598;46.054;11.130;2023-03-04T08:15:56;99410.28;;;33.28;13.55
50636;BME280;36598;46.054;11.130;2023-03-04T08:18:21;99410.84;;;34.01;12.77
50636;BME280;36598;46.054;11.130;2023-03-04T08:20:46;99403.06;;;36.19;11.39
50636;BME280;36598;46.054;11.130;2023-03-04T08:23:12;99403.47;;;33.47;12.22
50636;BME280;36598;46.054;11.130;2023-03-04T08:25:38;99393.97;;;34.36;11.87
50636;BME280;36598;46.054;11.130;2023-03-04T08:28:04;99393.19;;;33.67;12.46
50636;BME280;36598;46.054;11.130;2023-03-04T08:30:29;99392.63;;;33.83;11.60
50636;BME280;36598;46.054;11.130;2023-03-04T08:32:54;99374.88;;;37.75;9.76
50636;BME280;36598;46.054;11.130;2023-03-04T08:35:19;99386.38;;;31.62;14.88
50636;BME280;36598;46.054;11.130;2023-03-04T08:37:45;99378.28;;;33.83;12.34
50636;BME280;36598;46.054;11.130;2023-03-04T08:40:10;99373.28;;;35.74;10.63
50636;BME280;36598;46.054;11.130;2023-03-04T08:42:36;99372.03;;;34.79;11.33
50636;BME280;36598;46.054;11.130;2023-03-04T08:45:01;99363.53;;;35.36;10.93
50636;BME280;36598;46.054;11.130;2023-03-04T08:47:27;99364.50;;;34.12;11.84
50636;BME280;36598;46.054;11.130;2023-03-04T08:49:52;99357.84;;;34.81;10.61
50636;BME280;36598;46.054;11.130;2023-03-04T08:52:17;99348.66;;;36.48;9.51
50636;BME280;36598;46.054;11.130;2023-03-04T08:54:42;99345.88;;;36.57;10.17
50636;BME280;36598;46.054;11.130;2023-03-04T08:57:08;99346.66;;;33.45;11.67
50636;BME280;36598;46.054;11.130;2023-03-04T08:59:33;99341.66;;;35.08;10.42
50636;BME280;36598;46.054;11.130;2023-03-04T09:01:58;99335.47;;;36.20;10.00
50636;BME280;36598;46.054;11.130;2023-03-04T09:04:24;99343.31;;;33.18;11.75
50636;BME280;36598;46.054;11.130;2023-03-04T09:06:49;99333.59;;;34.59;11.09
50636;BME280;36598;46.054;11.130;2023-03-04T09:09:14;99327.88;;;34.44;10.90
50636;BME280;36598;46.054;11.130;2023-03-04T09:11:40;99326.16;;;37.52;8.87
50636;BME280;36598;46.054;11.130;2023-03-04T09:14:05;99326.53;;;35.66;10.06
50636;BME280;36598;46.054;11.130;2023-03-04T09:16:30;99323.50;;;34.35;10.74
50636;BME280;36598;46.054;11.130;2023-03-04T09:18:55;99313.78;;;33.92;11.65
50636;BME280;36598;46.054;11.130;2023-03-04T09:21:21;99316.94;;;34.57;11.23
50636;BME280;36598;46.054;11.130;2023-03-04T09:23:46;99312.78;;;34.91;10.52
50636;BME280;36598;46.054;11.130;2023-03-04T09:26:12;99310.97;;;36.80;9.56
50636;BME280;36598;46.054;11.130;2023-03-04T09:28:37;99307.28;;;35.18;10.63
50636;BME280;36598;46.054;11.130;2023-03-04T09:31:09;99293.28;;;33.96;11.02
50636;BME280;36598;46.054;11.130;2023-03-04T09:33:34;99288.63;;;35.27;10.72
50636;BME280;36598;46.054;11.130;2023-03-04T09:35:59;99280.47;;;34.75;11.05
50636;BME280;36598;46.054;11.130;2023-03-04T09:38:25;99277.44;;;33.56;11.93
50636;BME280;36598;46.054;11.130;2023-03-04T09:40:51;99278.16;;;33.26;11.99
50636;BME280;36598;46.054;11.130;2023-03-04T09:43:21;99275.38;;;32.82;11.86
50636;BME280;36598;46.054;11.130;2023-03-04T09:45:56;99275.56;;;31.21;12.98
50636;BME280;36598;46.054;11.130;2023-03-04T09:48:22;99269.00;;;34.04;11.14
50636;BME280;36598;46.054;11.130;2023-03-04T09:54:20;99271.41;;;28.72;14.18
50636;BME280;36598;46.054;11.130;2023-03-04T09:56:18;99260.38;;;31.67;12.43
50636;BME280;36598;46.054;11.130;2023-03-04T10:03:54;99257.16;;;29.09;14.75
50636;BME280;36598;46.054;11.130;2023-03-04T10:06:22;99249.88;;;30.12;13.90
50636;BME280;36598;46.054;11.130;2023-03-04T10:11:24;99248.13;;;27.56;15.55
50636;BME280;36598;46.054;11.130;2023-03-04T10:16:18;99231.22;;;28.18;15.10
50636;BME280;36598;46.054;11.130;2023-03-04T10:18:53;99227.84;;;28.77;15.18
50636;BME280;36598;46.054;11.130;2023-03-04T10:23:45;99221.25;;;29.33;14.23
50636;BME280;36598;46.054;11.130;2023-03-04T10:26:15;99214.88;;;29.13;14.45
50636;BME280;36598;46.054;11.130;2023-03-04T10:28:41;99208.72;;;28.90;14.71
50636;BME280;36598;46.054;11.130;2023-03-04T10:33:40;99195.06;;;28.32;15.27
50636;BME280;36598;46.054;11.130;2023-03-04T10:38:51;99192.03;;;28.49;14.88
50636;BME280;36598;46.054;11.130;2023-03-04T10:41:21;99181.50;;;30.67;13.59
50636;BME280;36598;46.054;11.130;2023-03-04T10:46:31;99174.31;;;28.18;15.25
50636;BME280;36598;46.054;11.130;2023-03-04T10:48:56;99171.72;;;27.23;15.75
50636;BME280;36598;46.054;11.130;2023-03-04T10:51:23;99168.06;;;28.01;15.42
50636;BME280;36598;46.054;11.130;2023-03-04T10:53:55;99165.84;;;28.69;14.42
50636;BME280;36598;46.054;11.130;2023-03-04T10:59:03;99154.13;;;24.46;17.65
50636;BME280;36598;46.054;11.130;2023-03-04T11:01:40;99143.31;;;25.46;17.42
50636;BME280;36598;46.054;11.130;2023-03-04T11:04:13;99141.34;;;26.52;16.71
50636;BME280;36598;46.054;11.130;2023-03-04T11:06:39;99136.09;;;24.33;17.62
50636;BME280;36598;46.054;11.130;2023-03-04T11:09:04;99124.84;;;24.72;17.16
50636;BME280;36598;46.054;11.130;2023-03-04T11:11:32;99128.34;;;25.62;17.46
50636;BME280;36598;46.054;11.130;2023-03-04T11:14:03;99122.16;;;26.22;16.53
50636;BME280;36598;46.054;11.130;2023-03-04T11:16:33;99115.06;;;24.95;17.64
50636;BME280;36598;46.054;11.130;2023-03-04T11:19:19;99114.66;;;25.66;17.39
50636;BME280;36598;46.054;11.130;2023-03-04T11:21:45;99097.38;;;25.76;17.02
50636;BME280;36598;46.054;11.130;2023-03-04T11:24:18;99101.50;;;23.72;18.16
50636;BME280;36598;46.054;11.130;2023-03-04T11:27:12;99098.50;;;24.04;18.36
50636;BME280;36598;46.054;11.130;2023-03-04T11:29:37;99080.56;;;24.30;18.24
50636;BME280;36598;46.054;11.130;2023-03-04T11:32:19;99076.22;;;24.90;17.30
50636;BME280;36598;46.054;11.130;2023-03-04T11:39:53;99048.19;;;24.76;17.72
50636;BME280;36598;46.054;11.130;2023-03-04T11:44:55;99044.00;;;23.98;18.00
50636;BME280;36598;46.054;11.130;2023-03-04T11:47:30;99040.16;;;23.90;17.88
50636;BME280;36598;46.054;11.130;2023-03-04T11:50:14;99034.91;;;23.60;18.48
50636;BME280;36598;46.054;11.130;2023-03-04T11:58:00;99021.25;;;20.76;21.98
50636;BME280;36598;46.054;11.130;2023-03-04T12:05:53;99008.63;;;20.21;22.08
50636;BME280;36598;46.054;11.130;2023-03-04T12:08:33;98998.69;;;21.98;21.04
50636;BME280;36598;46.054;11.130;2023-03-04T12:13:46;98982.19;;;21.60;21.59
50636;BME280;36598;46.054;11.130;2023-03-04T12:26:41;98946.41;;;18.77;23.35
50636;BME280;36598;46.054;11.130;2023-03-04T12:29:19;98943.03;;;19.36;23.20
50636;BME280;36598;46.054;11.130;2023-03-04T12:34:38;98942.06;;;20.78;21.70
50636;BME280;36598;46.054;11.130;2023-03-04T12:39:58;98922.03;;;20.55;21.78
50636;BME280;36598;46.054;11.130;2023-03-04T12:44:59;98922.81;;;19.61;22.37
50636;BME280;36598;46.054;11.130;2023-03-04T12:47:28;98917.66;;;18.91;23.66
50636;BME280;36598;46.054;11.130;2023-03-04T12:55:07;98902.38;;;19.46;22.38
50636;BME280;36598;46.054;11.130;2023-03-04T12:57:34;98891.88;;;19.85;22.02
50636;BME280;36598;46.054;11.130;2023-03-04T13:05:14;98878.47;;;20.10;20.73
50636;BME280;36598;46.054;11.130;2023-03-04T13:07:46;98874.72;;;20.33;20.36
50636;BME280;36598;46.054;11.130;2023-03-04T13:10:16;98879.94;;;20.05;21.32
50636;BME280;36598;46.054;11.130;2023-03-04T13:12:52;98866.56;;;20.35;20.83
50636;BME280;36598;46.054;11.130;2023-03-04T13:17:50;98856.56;;;20.69;19.72
50636;BME280;36598;46.054;11.130;2023-03-04T13:32:55;98847.06;;;17.97;22.82
50636;BME280;36598;46.054;11.130;2023-03-04T13:38:19;98831.47;;;19.31;21.78
50636;BME280;36598;46.054;11.130;2023-03-04T13:41:05;98820.44;;;19.42;21.15
50636;BME280;36598;46.054;11.130;2023-03-04T13:43:40;98829.63;;;19.42;20.67
50636;BME280;36598;46.054;11.130;2023-03-04T13:59:23;98806.63;;;19.23;20.43
50636;BME280;36598;46.054;11.130;2023-03-04T14:02:01;98801.69;;;18.41;21.62
50636;BME280;36598;46.054;11.130;2023-03-04T14:06:53;98803.56;;;18.83;22.19
50636;BME280;36598;46.054;11.130;2023-03-04T14:09:19;98799.31;;;18.72;22.57
50636;BME280;36598;46.054;11.130;2023-03-04T14:11:46;98789.06;;;18.84;22.34
50636;BME280;36598;46.054;11.130;2023-03-04T14:14:13;98789.38;;;18.86;22.33
50636;BME280;36598;46.054;11.130;2023-03-04T14:16:44;98784.44;;;18.18;22.66
50636;BME280;36598;46.054;11.130;2023-03-04T14:19:16;98786.38;;;17.27;22.50
50636;BME280;36598;46.054;11.130;2023-03-04T14:21:45;98780.00;;;17.79;22.27
50636;BME280;36598;46.054;11.130;2023-03-04T14:24:11;98777.03;;;18.06;22.70
50636;BME280;36598;46.054;11.130;2023-03-04T14:26:37;98768.75;;;18.36;22.62
50636;BME280;36598;46.054;11.130;2023-03-04T14:29:17;98768.56;;;18.39;22.26
50636;BME280;36598;46.054;11.130;2023-03-04T14:31:43;98757.78;;;18.23;23.07
50636;BME280;36598;46.054;11.130;2023-03-04T14:34:11;98760.53;;;17.84;23.89
50636;BME280;36598;46.054;11.130;2023-03-04T14:36:42;98755.63;;;18.03;23.67
50636;BME280;36598;46.054;11.130;2023-03-04T14:39:12;98748.97;;;18.15;24.08
50636;BME280;36598;46.054;11.130;2023-03-04T14:41:39;98745.81;;;17.74;24.41
50636;BME280;36598;46.054;11.130;2023-03-04T14:44:12;98741.31;;;17.68;24.02
50636;BME280;36598;46.054;11.130;2023-03-04T14:46:43;98735.66;;;17.86;23.89